sensor_id;sensor_type;location;lat;lon;timestamp;temperature;humidity
19000;DHT22;9633;50.980;13.850;2024-02-16T12:04:40;9.10;10.10
19000;DHT22;9633;50.980;13.850;2024-02-16T12:06:26;13.20;2.80
19000;DHT22;9633;50.980;13.850;2024-02-16T12:07:58;13.10;3.20
19000;DHT22;9633;50.980;13.850;2024-02-16T12:09:32;13.10;1.90
19000;DHT22;9633;50.980;13.850;2024-02-16T12:11:07;13.20;2.90
19000;DHT22;9633;50.980;13.850;2024-02-16T12:12:41;13.20;2.90
19000;DHT22;9633;50.980;13.850;2024-02-16T12:14:15;13.30;2.10
19000;DHT22;9633;50.980;13.850;2024-02-16T12:15:49;13.30;3.10
19000;DHT22;9633;50.980;13.850;2024-02-16T12:17:24;13.40;2.30
19000;DHT22;9633;50.980;13.850;2024-02-16T12:19:03;13.50;3.10
19000;DHT22;9633;50.980;13.850;2024-02-16T12:39:19;13.50;2.50
19000;DHT22;9633;50.980;13.850;2024-02-16T12:40:51;14.40;3.60
19000;DHT22;9633;50.980;13.850;2024-02-16T16:19:37;14.80;2.80
19000;DHT22;9633;50.980;13.850;2024-02-16T16:21:09;10.80;98.60
19000;DHT22;9633;50.980;13.850;2024-02-16T16:22:42;10.80;99.10
19000;DHT22;9633;50.980;13.850;2024-02-16T16:24:14;10.80;99.70
19000;DHT22;9633;50.980;13.850;2024-02-16T16:25:48;10.80;99.90
19000;DHT22;9633;50.980;13.850;2024-02-16T16:27:22;10.70;99.90
19000;DHT22;9633;50.980;13.850;2024-02-16T16:28:55;10.70;99.90
19000;DHT22;9633;50.980;13.850;2024-02-16T16:30:28;10.70;99.90
19000;DHT22;9633;50.980;13.850;2024-02-16T16:32:01;10.70;99.90
19000;DHT22;9633;50.980;13.850;2024-02-16T16:33:37;10.80;99.90
19000;DHT22;9633;50.980;13.850;2024-02-16T16:35:11;10.80;99.90
19000;DHT22;9633;50.980;13.850;2024-02-16T16:36:43;10.80;99.90
19000;DHT22;9633;50.980;13.850;2024-02-16T16:38:17;10.80;99.90
19000;DHT22;9633;50.980;13.850;2024-02-16T16:39:49;10.80;99.90
19000;DHT22;9633;50.980;13.850;2024-02-16T16:41:22;10.70;99.90
19000;DHT22;9633;50.980;13.850;2024-02-16T16:42:56;10.70;99.90
19000;DHT22;9633;50.980;13.850;2024-02-16T16:44:29;10.80;99.90
19000;DHT22;9633;50.980;13.850;2024-02-16T16:46:01;10.70;99.90
19000;DHT22;9633;50.980;13.850;2024-02-16T16:47:34;10.80;99.90
19000;DHT22;9633;50.980;13.850;2024-02-16T16:49:08;10.70;99.90
19000;DHT22;9633;50.980;13.850;2024-02-16T16:50:41;10.70;99.90
19000;DHT22;9633;50.980;13.850;2024-02-16T16:52:14;10.80;99.90
19000;DHT22;9633;50.980;13.850;2024-02-16T16:53:46;10.90;99.40
19000;DHT22;9633;50.980;13.850;2024-02-16T16:55:19;10.90;99.10
19000;DHT22;9633;50.980;13.850;2024-02-16T16:56:52;11.00;95.30
19000;DHT22;9633;50.980;13.850;2024-02-16T16:58:27;11.00;92.90
19000;DHT22;9633;50.980;13.850;2024-02-16T16:59:59;11.10;92.60
19000;DHT22;9633;50.980;13.850;2024-02-16T17:01:33;11.10;91.50
19000;DHT22;9633;50.980;13.850;2024-02-16T17:03:08;11.10;90.60
19000;DHT22;9633;50.980;13.850;2024-02-16T17:04:42;11.10;89.70
19000;DHT22;9633;50.980;13.850;2024-02-16T17:06:14;11.10;88.80
19000;DHT22;9633;50.980;13.850;2024-02-16T17:07:48;11.10;89.00
19000;DHT22;9633;50.980;13.850;2024-02-16T17:09:20;11.10;86.60
19000;DHT22;9633;50.980;13.850;2024-02-16T17:10:54;11.10;84.30
19000;DHT22;9633;50.980;13.850;2024-02-16T17:12:26;11.10;85.70
19000;DHT22;9633;50.980;13.850;2024-02-16T17:14:01;11.10;89.30
19000;DHT22;9633;50.980;13.850;2024-02-16T17:15:33;11.10;92.40
19000;DHT22;9633;50.980;13.850;2024-02-16T17:17:06;11.00;93.20
19000;DHT22;9633;50.980;13.850;2024-02-16T17:18:39;11.00;93.40
19000;DHT22;9633;50.980;13.850;2024-02-16T17:20:13;11.00;94.10
19000;DHT22;9633;50.980;13.850;2024-02-16T17:21:46;11.00;94.00
19000;DHT22;9633;50.980;13.850;2024-02-16T17:23:19;11.00;94.80
19000;DHT22;9633;50.980;13.850;2024-02-16T17:24:51;11.00;95.10
19000;DHT22;9633;50.980;13.850;2024-02-16T17:26:25;11.00;94.00
19000;DHT22;9633;50.980;13.850;2024-02-16T17:27:57;11.00;95.00
19000;DHT22;9633;50.980;13.850;2024-02-16T17:29:32;11.00;95.20
19000;DHT22;9633;50.980;13.850;2024-02-16T17:31:04;11.00;97.00
19000;DHT22;9633;50.980;13.850;2024-02-16T17:32:37;11.00;98.40
19000;DHT22;9633;50.980;13.850;2024-02-16T17:34:11;10.90;99.90
19000;DHT22;9633;50.980;13.850;2024-02-16T17:35:43;10.90;99.70
19000;DHT22;9633;50.980;13.850;2024-02-16T17:37:17;10.90;99.40
19000;DHT22;9633;50.980;13.850;2024-02-16T17:38:49;10.90;99.80
19000;DHT22;9633;50.980;13.850;2024-02-16T17:40:23;10.90;99.90
19000;DHT22;9633;50.980;13.850;2024-02-16T17:41:56;10.90;99.90
19000;DHT22;9633;50.980;13.850;2024-02-16T17:43:29;10.90;99.90
19000;DHT22;9633;50.980;13.850;2024-02-16T17:45:07;10.80;99.90
19000;DHT22;9633;50.980;13.850;2024-02-16T17:46:39;10.80;99.90
19000;DHT22;9633;50.980;13.850;2024-02-16T17:48:12;10.90;99.90
19000;DHT22;9633;50.980;13.850;2024-02-16T17:49:45;10.90;99.90
19000;DHT22;9633;50.980;13.850;2024-02-16T17:51:18;10.90;99.90
19000;DHT22;9633;50.980;13.850;2024-02-16T17:52:50;10.80;99.90
19000;DHT22;9633;50.980;13.850;2024-02-16T17:54:24;10.90;99.90
19000;DHT22;9633;50.980;13.850;2024-02-16T17:55:59;10.90;99.90
19000;DHT22;9633;50.980;13.850;2024-02-16T17:57:32;10.80;99.90
19000;DHT22;9633;50.980;13.850;2024-02-16T17:59:05;10.90;99.90
19000;DHT22;9633;50.980;13.850;2024-02-16T18:00:39;10.80;99.90
19000;DHT22;9633;50.980;13.850;2024-02-16T18:02:12;10.80;99.90
19000;DHT22;9633;50.980;13.850;2024-02-16T18:04:01;10.80;99.90
19000;DHT22;9633;50.980;13.850;2024-02-16T18:05:35;10.80;99.90
19000;DHT22;9633;50.980;13.850;2024-02-16T18:07:08;10.80;99.90
19000;DHT22;9633;50.980;13.850;2024-02-16T18:08:44;10.90;99.90
19000;DHT22;9633;50.980;13.850;2024-02-16T18:10:17;10.90;99.90
19000;DHT22;9633;50.980;13.850;2024-02-16T18:11:50;10.90;99.90
19000;DHT22;9633;50.980;13.850;2024-02-16T18:13:23;10.90;99.90
19000;DHT22;9633;50.980;13.850;2024-02-16T18:14:56;10.90;99.90
19000;DHT22;9633;50.980;13.850;2024-02-16T18:16:30;10.90;99.90
19000;DHT22;9633;50.980;13.850;2024-02-16T18:18:03;11.00;99.90
19000;DHT22;9633;50.980;13.850;2024-02-16T18:19:37;11.00;99.90
19000;DHT22;9633;50.980;13.850;2024-02-16T18:21:10;11.00;99.90
19000;DHT22;9633;50.980;13.850;2024-02-16T18:22:44;11.00;99.90
19000;DHT22;9633;50.980;13.850;2024-02-16T18:24:16;11.10;99.90
19000;DHT22;9633;50.980;13.850;2024-02-16T18:25:49;11.10;99.90
19000;DHT22;9633;50.980;13.850;2024-02-16T18:27:23;11.00;99.90
19000;DHT22;9633;50.980;13.850;2024-02-16T18:28:56;11.10;99.90
19000;DHT22;9633;50.980;13.850;2024-02-16T18:30:29;11.10;97.70
19000;DHT22;9633;50.980;13.850;2024-02-16T18:32:04;11.10;98.00
19000;DHT22;9633;50.980;13.850;2024-02-16T18:33:36;11.10;98.00
19000;DHT22;9633;50.980;13.850;2024-02-16T18:35:10;11.10;98.00
19000;DHT22;9633;50.980;13.850;2024-02-16T18:36:43;11.10;97.70
19000;DHT22;9633;50.980;13.850;2024-02-16T18:38:15;11.10;97.70
19000;DHT22;9633;50.980;13.850;2024-02-16T18:39:49;11.10;99.30
19000;DHT22;9633;50.980;13.850;2024-02-16T18:41:21;11.10;99.70
19000;DHT22;9633;50.980;13.850;2024-02-16T18:42:54;11.10;99.90
19000;DHT22;9633;50.980;13.850;2024-02-16T18:44:26;11.10;99.90
19000;DHT22;9633;50.980;13.850;2024-02-16T18:46:00;11.10;99.90
19000;DHT22;9633;50.980;13.850;2024-02-16T18:47:33;11.10;99.90
19000;DHT22;9633;50.980;13.850;2024-02-16T18:49:06;11.10;99.90
19000;DHT22;9633;50.980;13.850;2024-02-16T18:50:39;11.10;99.90
19000;DHT22;9633;50.980;13.850;2024-02-16T18:52:12;11.00;99.90
19000;DHT22;9633;50.980;13.850;2024-02-16T18:53:46;11.00;99.90
19000;DHT22;9633;50.980;13.850;2024-02-16T18:55:19;11.00;99.90
19000;DHT22;9633;50.980;13.850;2024-02-16T18:56:51;11.00;99.90
19000;DHT22;9633;50.980;13.850;2024-02-16T18:58:25;11.00;99.90
19000;DHT22;9633;50.980;13.850;2024-02-16T18:59:57;11.00;99.90
19000;DHT22;9633;50.980;13.850;2024-02-16T19:01:31;10.90;99.90
19000;DHT22;9633;50.980;13.850;2024-02-16T19:03:05;10.90;99.90
19000;DHT22;9633;50.980;13.850;2024-02-16T19:04:39;10.90;99.90
19000;DHT22;9633;50.980;13.850;2024-02-16T19:06:12;10.90;99.90
19000;DHT22;9633;50.980;13.850;2024-02-16T19:07:44;10.80;99.90
19000;DHT22;9633;50.980;13.850;2024-02-16T19:09:19;10.80;99.90
19000;DHT22;9633;50.980;13.850;2024-02-16T19:10:52;10.80;99.90
19000;DHT22;9633;50.980;13.850;2024-02-16T19:12:26;10.90;99.90
19000;DHT22;9633;50.980;13.850;2024-02-16T19:14:00;10.80;99.90
19000;DHT22;9633;50.980;13.850;2024-02-16T19:15:32;10.80;99.90
19000;DHT22;9633;50.980;13.850;2024-02-16T19:17:06;10.70;99.90
19000;DHT22;9633;50.980;13.850;2024-02-16T19:18:39;10.70;99.90
19000;DHT22;9633;50.980;13.850;2024-02-16T19:20:13;10.60;99.90
19000;DHT22;9633;50.980;13.850;2024-02-16T19:21:45;10.60;99.90
19000;DHT22;9633;50.980;13.850;2024-02-16T19:23:21;10.60;99.90
